Time;durP1;ratioP1;P1;durP2;ratioP2;P2;SDS_P1;SDS_P2;PMS_P1;PMS_P2;Temp;Humidity;BMP_temperature;BMP_pressure;BME280_temperature;BME280_humidity;BME280_pressure;Samples;Min_cycle;Max_cycle;Signal;HPM_P1;HPM_P2
2023/02/09 00:00:10;;;;;;;20.25;12.18;;;;;;;-2.97;81.80;102556.72;4985765;28;20082;-80
2023/02/09 00:02:38;;;;;;;22.58;12.00;;;;;;;-3.04;82.11;102557.69;4981003;28;20062;-81
2023/02/09 00:05:05;;;;;;;20.92;12.00;;;;;;;-3.09;82.83;102552.63;4986045;28;20073;-81
2023/02/09 00:07:33;;;;;;;19.52;12.10;;;;;;;-3.10;83.06;102553.47;4987605;28;20046;-82
2023/02/09 00:09:59;;;;;;;23.05;12.30;;;;;;;-3.13;83.42;102552.69;4989476;28;20129;-80
2023/02/09 00:15:10;;;;;;;24.33;12.63;;;;;;;-3.27;83.50;102550.31;4988393;28;20109;-81
2023/02/09 00:17:37;;;;;;;21.88;11.70;;;;;;;-3.23;83.37;102546.84;4988009;28;20142;-82
2023/02/09 00:20:05;;;;;;;22.17;12.77;;;;;;;-3.00;83.08;102533.72;4989034;28;20050;-82
2023/02/09 00:22:34;;;;;;;23.60;12.30;;;;;;;-3.12;83.50;102534.72;4989396;28;20051;-81
2023/02/09 00:25:02;;;;;;;17.23;11.13;;;;;;;-3.02;82.94;102538.00;4988939;28;20074;-81
2023/02/09 00:27:31;;;;;;;23.33;12.27;;;;;;;-2.87;82.92;102527.53;4988579;28;20070;-81
2023/02/09 00:29:57;;;;;;;20.17;12.13;;;;;;;-2.93;82.44;102525.06;4986693;28;20057;-81
2023/02/09 00:32:24;;;;;;;19.98;12.23;;;;;;;-3.07;82.98;102521.88;4984937;28;20589;-81
2023/02/09 00:34:50;;;;;;;21.20;11.70;;;;;;;-3.17;83.77;102526.25;4984165;28;20069;-80
2023/02/09 00:37:17;;;;;;;24.17;12.77;;;;;;;-3.24;84.38;102534.06;4984484;28;20074;-81
2023/02/09 00:39:45;;;;;;;25.45;12.88;;;;;;;-3.06;83.63;102529.53;4984469;28;20106;-80
2023/02/09 00:42:12;;;;;;;23.48;12.57;;;;;;;-2.77;82.53;102516.25;4984151;28;20093;-81
2023/02/09 00:44:40;;;;;;;20.17;12.07;;;;;;;-2.64;82.32;102516.91;4984249;28;20105;-81
2023/02/09 00:47:08;;;;;;;21.67;12.25;;;;;;;-2.59;81.87;102506.56;4984692;28;20054;-82
2023/02/09 00:49:35;;;;;;;23.38;12.65;;;;;;;-2.62;81.82;102499.78;4985738;28;20082;-80
2023/02/09 00:52:02;;;;;;;18.73;12.10;;;;;;;-2.59;80.92;102494.59;4984852;28;20054;-79
2023/02/09 00:54:28;;;;;;;23.02;11.70;;;;;;;-2.68;80.95;102494.75;4984946;28;20093;-81
2023/02/09 00:56:57;;;;;;;20.27;11.50;;;;;;;-2.78;81.41;102506.88;4984388;28;20142;-80
2023/02/09 00:59:24;;;;;;;19.60;10.90;;;;;;;-2.88;81.98;102507.06;4985664;28;20047;-80
2023/02/09 01:01:50;;;;;;;19.63;11.82;;;;;;;-2.79;82.09;102519.69;4984357;28;20063;-79
2023/02/09 01:04:17;;;;;;;22.38;12.13;;;;;;;-2.71;81.87;102515.31;4983524;28;20079;-78
2023/02/09 01:06:43;;;;;;;20.77;12.13;;;;;;;-2.78;82.00;102518.84;4984328;28;20131;-80
2023/02/09 01:09:10;;;;;;;20.13;11.40;;;;;;;-2.78;82.18;102516.28;4984593;28;20106;-80
2023/02/09 01:11:36;;;;;;;23.38;11.45;;;;;;;-2.98;82.80;102520.88;4984185;28;20086;-81
2023/02/09 01:14:04;;;;;;;19.83;10.90;;;;;;;-3.12;83.17;102521.94;4984142;28;20139;-79
2023/02/09 01:16:32;;;;;;;23.13;11.93;;;;;;;-2.97;83.43;102518.31;4983639;28;20086;-80
2023/02/09 01:19:00;;;;;;;21.77;11.63;;;;;;;-2.76;82.96;102511.97;4984290;28;20050;-80
2023/02/09 01:21:27;;;;;;;19.90;11.52;;;;;;;-2.74;83.09;102520.47;4983365;28;20474;-79
2023/02/09 01:23:54;;;;;;;20.27;11.93;;;;;;;-2.78;83.36;102521.41;4982251;28;20055;-80
2023/02/09 01:26:20;;;;;;;18.75;11.20;;;;;;;-2.83;83.75;102520.63;4982454;28;20145;-80
2023/02/09 01:28:49;;;;;;;21.58;11.63;;;;;;;-2.86;83.80;102513.88;4982259;28;20402;-80
2023/02/09 01:31:23;;;;;;;21.33;11.77;;;;;;;-2.81;84.04;102516.31;4981645;28;20058;-80
2023/02/09 01:33:50;;;;;;;21.38;11.57;;;;;;;-2.75;83.54;102513.66;4982601;28;20055;-79
2023/02/09 01:36:16;;;;;;;20.70;11.40;;;;;;;-2.63;83.82;102503.22;4982809;28;20046;-79
2023/02/09 01:38:43;;;;;;;18.52;11.30;;;;;;;-2.55;83.05;102500.53;4982266;28;20074;-79
2023/02/09 01:41:10;;;;;;;20.00;12.13;;;;;;;-2.47;82.31;102493.53;4982159;28;20568;-80
2023/02/09 01:43:52;;;;;;;21.85;11.05;;;;;;;-2.53;82.20;102489.38;4981770;28;20201;-78
2023/02/09 01:46:18;;;;;;;24.15;12.40;;;;;;;-2.67;82.43;102486.19;4982360;28;20122;-81
2023/02/09 01:48:47;;;;;;;21.30;11.57;;;;;;;-2.72;82.85;102496.53;4983547;28;20129;-80
2023/02/09 01:51:14;;;;;;;20.88;10.85;;;;;;;-2.77;83.43;102493.19;4983431;28;20167;-80
2023/02/09 01:53:42;;;;;;;19.38;10.60;;;;;;;-2.87;83.10;102490.81;4982886;28;20074;-80
2023/02/09 01:56:25;;;;;;;18.23;10.55;;;;;;;-2.85;83.64;102486.53;4982307;28;20050;-79
2023/02/09 01:58:52;;;;;;;21.58;11.63;;;;;;;-2.80;83.39;102505.19;4982740;28;20054;-80
2023/02/09 02:01:18;;;;;;;19.45;11.05;;;;;;;-2.78;83.87;102506.88;4981907;28;20083;-79
2023/02/09 02:03:46;;;;;;;18.67;10.93;;;;;;;-2.87;83.67;102499.34;4981894;28;20074;-80
2023/02/09 02:06:17;;;;;;;18.13;11.27;;;;;;;-2.98;84.05;102503.81;4983816;28;20051;-79
2023/02/09 02:08:48;;;;;;;23.25;11.57;;;;;;;-3.03;84.51;102496.19;4984579;28;20085;-79
2023/02/09 02:11:16;;;;;;;21.42;11.30;;;;;;;-2.90;84.31;102490.88;4982952;28;20118;-79
2023/02/09 02:13:43;;;;;;;21.48;11.98;;;;;;;-2.98;84.73;102490.16;4981593;28;20432;-80
2023/02/09 02:16:23;;;;;;;23.45;12.18;;;;;;;-2.95;85.34;102501.19;4981048;28;20126;-79
2023/02/09 02:19:02;;;;;;;20.90;11.70;;;;;;;-3.03;85.33;102498.75;4983167;28;20054;-80
2023/02/09 02:22:20;;;;;;;21.75;12.52;;;;;;;-3.09;85.60;102500.56;4980930;28;20078;-81
2023/02/09 02:25:18;;;;;;;24.02;12.30;;;;;;;-3.13;85.73;102497.19;4916926;29;20143;-81
2023/02/09 02:27:49;;;;;;;19.88;11.32;;;;;;;-3.28;86.33;102486.31;4919739;29;20123;-81
2023/02/09 02:30:37;;;;;;;21.40;12.32;;;;;;;-3.39;87.07;102487.34;4959612;28;20126;-81
2023/02/09 02:33:17;;;;;;;22.70;12.48;;;;;;;-3.19;87.22;102507.53;4979406;28;20078;-80
2023/02/09 02:35:51;;;;;;;20.90;11.73;;;;;;;-3.23;86.88;102505.88;4980703;28;20166;-80
2023/02/09 02:38:25;;;;;;;20.10;12.38;;;;;;;-3.31;86.93;102505.16;4972380;28;20059;-80
2023/02/09 02:40:59;;;;;;;22.00;12.02;;;;;;;-3.23;87.02;102503.31;4979593;28;20138;-80
2023/02/09 02:43:40;;;;;;;22.70;12.23;;;;;;;-3.21;86.76;102501.56;4980075;28;20127;-81
2023/02/09 02:46:13;;;;;;;25.23;12.90;;;;;;;-3.30;87.42;102504.25;4979385;28;20131;-79
2023/02/09 02:48:46;;;;;;;22.13;12.00;;;;;;;-3.26;86.75;102497.38;4979502;28;20107;-78
2023/02/09 02:51:15;;;;;;;;;;;;;;;-3.15;86.59;102504.03;4978557;28;20055;-80
2023/02/09 02:53:47;;;;;;;21.67;11.98;;;;;;;-3.21;86.86;102501.56;4981051;28;20008;-80
2023/02/09 02:56:19;;;;;;;21.42;11.65;;;;;;;-3.36;86.85;102515.47;4982406;28;20055;-80
2023/02/09 02:58:49;;;;;;;22.23;12.52;;;;;;;-3.44;87.22;102514.72;4984983;28;20491;-79
2023/02/09 03:01:20;;;;;;;24.52;12.95;;;;;;;-3.37;87.51;102513.78;4985582;28;20074;-78
2023/02/09 03:03:50;;;;;;;30.00;14.18;;;;;;;-3.39;87.91;102519.78;4980070;28;20054;-79
2023/02/09 03:06:18;;;;;;;20.98;12.10;;;;;;;-3.41;87.74;102511.28;4978935;28;20141;-80
2023/02/09 03:08:50;;;;;;;26.17;12.57;;;;;;;-3.39;87.61;102515.50;4985728;28;20130;-79
2023/02/09 03:11:19;;;;;;;24.63;12.77;;;;;;;-3.37;87.75;102512.91;4978262;28;20110;-79
2023/02/09 03:13:59;;;;;;;23.27;12.77;;;;;;;-3.28;87.47;102499.97;4986418;28;20075;-80
2023/02/09 03:16:32;;;;;;;22.77;12.95;;;;;;;-3.28;87.14;102497.41;4985579;28;20085;-79
2023/02/09 03:19:12;;;;;;;26.23;13.27;;;;;;;-3.37;87.12;102505.25;4986695;28;20074;-78
2023/02/09 03:21:49;;;;;;;22.23;12.98;;;;;;;-3.35;87.00;102506.06;4986426;28;20086;-78
2023/02/09 03:24:24;;;;;;;25.48;13.30;;;;;;;-3.39;87.52;102506.97;4985933;28;20082;-78
2023/02/09 03:27:04;;;;;;;23.27;13.85;;;;;;;-3.32;87.17;102500.06;4981040;28;20130;-78
2023/02/09 03:29:33;;;;;;;21.80;12.90;;;;;;;-3.30;87.25;102494.03;4984024;28;20119;-78
2023/02/09 03:32:00;;;;;;;25.60;12.80;;;;;;;-3.37;87.35;102498.41;4984054;28;20106;-78
2023/02/09 03:34:28;;;;;;;21.48;12.80;;;;;;;-3.37;87.25;102507.81;4988077;28;20054;-79
2023/02/09 03:36:57;;;;;;;21.80;12.45;;;;;;;-3.49;87.50;102513.94;4987519;28;20092;-79
2023/02/09 03:39:23;;;;;;;24.08;12.70;;;;;;;-3.45;87.54;102501.94;4986560;28;20130;-79
2023/02/09 03:41:50;;;;;;;24.00;14.00;;;;;;;-3.44;87.33;102498.50;4988299;28;20133;-79
2023/02/09 03:44:26;;;;;;;24.92;13.40;;;;;;;-3.49;87.88;102513.94;4986775;28;20111;-79
2023/02/09 03:46:53;;;;;;;23.95;13.18;;;;;;;-3.59;88.02;102514.06;4987594;28;20130;-78
2023/02/09 03:49:20;;;;;;;26.77;13.57;;;;;;;-3.68;88.12;102513.31;4988327;28;20341;-79
2023/02/09 03:51:48;;;;;;;23.65;14.00;;;;;;;-3.69;88.54;102511.63;4988312;28;20261;-78
2023/02/09 03:54:14;;;;;;;23.13;13.00;;;;;;;-3.69;88.62;102498.81;4987158;28;20210;-79
2023/02/09 03:56:41;;;;;;;24.10;13.25;;;;;;;-3.72;88.84;102501.41;4987019;28;20054;-82
2023/02/09 03:59:08;;;;;;;25.30;14.13;;;;;;;-3.62;88.72;102496.19;4985140;28;20133;-78
2023/02/09 04:01:35;;;;;;;25.27;13.05;;;;;;;-3.65;88.79;102498.78;4983754;28;20078;-79
2023/02/09 04:04:02;;;;;;;22.73;12.90;;;;;;;-3.60;88.94;102487.63;4983748;28;20425;-78
2023/02/09 04:06:31;;;;;;;24.88;13.50;;;;;;;-3.67;89.05;102489.41;4983702;28;20432;-78
2023/02/09 04:08:59;;;;;;;24.30;14.13;;;;;;;-3.72;89.17;102483.50;4983201;28;20134;-78
2023/02/09 04:11:25;;;;;;;26.75;13.45;;;;;;;-3.79;89.49;102483.63;4983845;28;20054;-79
2023/02/09 04:13:52;;;;;;;22.75;13.20;;;;;;;-3.83;89.59;102487.94;4983178;28;20150;-78
2023/02/09 04:16:19;;;;;;;25.08;13.80;;;;;;;-3.86;89.71;102487.13;4982722;28;20098;-79
2023/02/09 04:18:46;;;;;;;26.23;14.07;;;;;;;-3.87;89.80;102486.28;4983300;28;20055;-80
2023/02/09 04:21:13;;;;;;;25.30;14.15;;;;;;;-3.88;89.75;102489.72;4982378;28;20123;-78
2023/02/09 04:23:39;;;;;;;24.33;13.50;;;;;;;-3.97;89.83;102484.69;4982606;28;20089;-80
2023/02/09 04:26:08;;;;;;;23.35;13.18;;;;;;;-3.97;89.94;102494.94;4982830;28;20129;-79
2023/02/09 04:28:35;;;;;;;28.95;14.82;;;;;;;-3.93;89.69;102488.91;4983017;28;20193;-80
2023/02/09 04:31:01;;;;;;;21.77;12.98;;;;;;;-3.97;90.27;102468.50;4982932;28;20609;-79
2023/02/09 04:33:28;;;;;;;25.35;14.93;;;;;;;-3.92;89.92;102466.75;4982166;28;20139;-76
2023/02/09 04:35:55;;;;;;;26.70;13.38;;;;;;;-3.99;90.16;102455.75;4985082;28;20517;-79
2023/02/09 04:38:22;;;;;;;26.80;15.05;;;;;;;-3.97;90.16;102460.84;4985745;28;20047;-79
2023/02/09 04:40:52;;;;;;;25.45;13.88;;;;;;;-4.03;90.38;102470.28;4985731;28;20517;-79
2023/02/09 04:43:20;;;;;;;25.58;14.05;;;;;;;-4.03;90.60;102462.59;4978497;28;20082;-79
2023/02/09 04:45:47;;;;;;;25.60;13.55;;;;;;;-4.10;90.82;102478.88;4984330;28;20106;-81
2023/02/09 04:48:15;;;;;;;26.95;14.25;;;;;;;-4.12;91.18;102466.97;4984618;28;20501;-81
2023/02/09 04:50:42;;;;;;;25.75;13.73;;;;;;;-4.05;90.81;102461.78;4986600;28;20106;-81
2023/02/09 04:53:09;;;;;;;26.60;13.80;;;;;;;-4.15;91.44;102464.44;4984931;28;20081;-80
2023/02/09 04:55:37;;;;;;;24.70;13.88;;;;;;;-4.11;91.30;102471.22;4983688;28;20054;-81
2023/02/09 05:00:49;;;;;;;25.17;14.18;;;;;;;-4.13;91.38;102457.59;4983574;28;20078;-80
2023/02/09 05:03:16;;;;;;;26.80;15.23;;;;;;;-4.18;91.68;102459.38;4983446;28;20109;-81
2023/02/09 05:05:43;;;;;;;27.17;14.68;;;;;;;-4.20;91.76;102446.59;4982046;28;20157;-80
2023/02/09 05:08:10;;;;;;;27.88;14.60;;;;;;;-4.12;91.75;102452.47;4982852;28;20053;-79
2023/02/09 05:10:36;;;;;;;29.98;15.95;;;;;;;-4.12;91.75;102457.59;4982250;28;20133;-81
2023/02/09 05:13:03;;;;;;;29.30;15.45;;;;;;;-4.08;91.51;102458.41;4981420;28;20070;-80
2023/02/09 05:15:29;;;;;;;29.10;15.18;;;;;;;-4.15;91.91;102449.13;4980384;28;20125;-80
2023/02/09 05:17:57;;;;;;;27.02;14.73;;;;;;;-4.21;91.88;102449.19;4980888;28;20158;-81
2023/02/09 05:20:24;;;;;;;25.67;14.43;;;;;;;-4.32;92.25;102440.81;4982425;28;20085;-80
2023/02/09 05:22:50;;;;;;;26.95;15.02;;;;;;;-4.31;92.49;102458.69;4980956;28;20549;-81
2023/02/09 05:25:17;;;;;;;30.15;16.10;;;;;;;-4.26;92.88;102451.81;4980271;28;20146;-80
2023/02/09 05:27:44;;;;;;;30.63;15.20;;;;;;;-4.23;92.75;102456.03;4979491;28;20057;-80
2023/02/09 05:30:11;;;;;;;31.00;15.93;;;;;;;-4.23;93.07;102459.41;4980413;28;20081;-79
2023/02/09 05:32:38;;;;;;;32.17;16.75;;;;;;;-4.30;92.85;102459.53;4981914;28;20085;-80
2023/02/09 05:35:07;;;;;;;30.13;16.45;;;;;;;-4.36;93.28;102461.28;4982035;28;20066;-81
2023/02/09 05:37:34;;;;;;;32.53;15.18;;;;;;;-4.30;93.43;102451.88;4981794;28;20097;-78
2023/02/09 05:40:00;;;;;;;30.88;15.77;;;;;;;-4.18;93.32;102464.47;4975089;28;20051;-79
2023/02/09 05:42:27;;;;;;;29.55;15.65;;;;;;;-4.15;93.66;102455.06;4980179;28;20142;-79
2023/02/09 05:44:53;;;;;;;32.47;16.50;;;;;;;-4.05;93.10;102459.22;4982576;28;20130;-80
2023/02/09 05:47:22;;;;;;;26.65;16.50;;;;;;;-4.01;92.87;102457.47;4981260;28;20110;-78
2023/02/09 05:49:48;;;;;;;29.77;16.23;;;;;;;-4.03;92.77;102454.94;4981775;28;20047;-79
2023/02/09 05:52:17;;;;;;;30.52;15.90;;;;;;;-4.02;93.06;102455.78;4979767;28;20050;-79
2023/02/09 05:54:44;;;;;;;30.90;16.08;;;;;;;-4.06;92.84;102454.97;4981364;28;20146;-79
2023/02/09 05:57:13;;;;;;;32.70;16.55;;;;;;;-4.17;92.52;102446.56;4981795;28;20078;-82
2023/02/09 05:59:40;;;;;;;27.50;16.08;;;;;;;-4.26;92.92;102454.38;4983501;28;20133;-80
2023/02/09 06:02:07;;;;;;;31.35;16.27;;;;;;;-4.25;92.99;102453.47;4979937;28;20082;-79
2023/02/09 06:04:35;;;;;;;33.63;15.88;;;;;;;-4.25;92.88;102461.16;4980150;28;20110;-80
2023/02/09 06:07:01;;;;;;;32.53;17.63;;;;;;;-4.22;93.18;102457.72;4978762;28;20165;-80
2023/02/09 06:09:29;;;;;;;31.52;16.33;;;;;;;-4.26;93.35;102456.94;4980351;28;20102;-79
2023/02/09 06:11:56;;;;;;;33.80;15.90;;;;;;;-4.23;93.20;102456.03;4980564;28;20081;-79
2023/02/09 06:14:23;;;;;;;30.00;15.95;;;;;;;-4.22;93.63;102447.50;4979190;28;20469;-79
2023/02/09 06:16:49;;;;;;;32.75;17.08;;;;;;;-4.19;93.65;102442.34;4979910;28;20082;-78
2023/02/09 06:19:20;;;;;;;33.40;16.58;;;;;;;-4.20;93.40;102446.59;4986003;28;20074;-78
2023/02/09 06:21:46;;;;;;;30.48;16.00;;;;;;;-4.26;93.69;102428.81;4992824;28;20061;-77
2023/02/09 06:24:13;;;;;;;33.55;16.20;;;;;;;-4.16;93.67;102442.31;4992173;28;20062;-77
2023/02/09 06:26:42;;;;;;;29.88;16.73;;;;;;;-4.15;93.44;102444.00;4992427;28;20039;-78
2023/02/09 06:29:09;;;;;;;30.30;16.50;;;;;;;-4.18;93.29;102437.22;4995137;28;20058;-78
2023/02/09 06:31:36;;;;;;;29.52;15.80;;;;;;;-4.15;93.36;102441.44;4996531;28;20055;-79
2023/02/09 06:34:04;;;;;;;36.63;18.05;;;;;;;-4.07;93.28;102452.44;5016759;23;20050;-78
2023/02/09 06:36:31;;;;;;;30.92;15.85;;;;;;;-4.02;93.33;102450.66;4959099;29;20134;-79
2023/02/09 06:38:58;;;;;;;33.10;16.90;;;;;;;-3.99;93.54;102450.63;4956805;28;20043;-78
2023/02/09 06:41:25;;;;;;;33.38;16.25;;;;;;;-4.02;93.12;102455.78;4956745;29;20101;-78
2023/02/09 06:43:53;;;;;;;32.97;16.15;;;;;;;-4.12;93.35;102446.53;4955579;29;20051;-79
2023/02/09 06:46:20;;;;;;;30.55;17.70;;;;;;;-4.23;93.62;102451.75;4935812;29;20047;-78
2023/02/09 06:48:46;;;;;;;39.40;17.65;;;;;;;-4.19;94.09;102458.53;4936747;29;20057;-79
2023/02/09 06:51:15;;;;;;;28.98;16.58;;;;;;;-4.22;94.14;102470.50;4936236;29;20146;-79
2023/02/09 06:53:42;;;;;;;31.70;15.50;;;;;;;-4.30;94.30;102467.19;4936370;29;20047;-79
2023/02/09 06:56:09;;;;;;;30.33;16.60;;;;;;;-4.24;94.53;102460.28;4936158;29;20414;-77
2023/02/09 06:58:37;;;;;;;32.03;16.77;;;;;;;-4.30;94.71;102459.53;4936195;29;20207;-78
2023/02/09 07:01:07;;;;;;;51.00;28.13;;;;;;;-4.35;94.93;102462.97;4937063;29;20051;-76
2023/02/09 07:03:34;;;;;;;34.80;16.95;;;;;;;-4.33;95.30;102467.22;4932262;29;20051;-76
2023/02/09 07:06:06;;;;;;;32.65;17.33;;;;;;;-4.31;95.26;102478.28;4934978;29;20131;-74
2023/02/09 07:08:41;;;;;;;29.90;16.83;;;;;;;-4.23;95.53;102471.34;4935561;29;20106;-77
2023/02/09 07:11:34;;;;;;;31.35;16.58;;;;;;;-4.47;95.48;102452.88;4936353;29;20798;-77
2023/02/09 07:14:11;;;;;;;26.05;13.77;;;;;;;-4.26;95.45;102492.72;4930518;29;20596;-76
2023/02/09 07:16:56;;;;;;;29.95;16.55;;;;;;;-4.24;95.68;102495.22;4935579;29;20052;-79
2023/02/09 07:19:27;;;;;;;30.23;16.55;;;;;;;-4.20;96.06;102505.41;4936166;29;20447;-78
2023/02/09 07:22:00;;;;;;;29.08;16.95;;;;;;;-4.32;96.03;102487.66;4936076;29;20073;-77
2023/02/09 07:24:35;;;;;;;29.92;16.65;;;;;;;-4.02;95.79;102509.47;4936998;29;20059;-78
2023/02/09 07:27:01;;;;;;;33.45;16.48;;;;;;;-4.02;95.61;102483.91;4933971;29;20486;-77
2023/02/09 07:29:28;;;;;;;33.53;18.13;;;;;;;-3.79;95.76;102494.72;4934100;29;20139;-77
2023/02/09 07:31:56;;;;;;;38.58;17.63;;;;;;;-3.62;95.29;102503.88;4932709;29;20204;-75
2023/02/09 07:34:23;;;;;;;40.90;17.98;;;;;;;-3.30;95.07;102494.03;4933699;29;20107;-76
2023/02/09 07:36:50;;;;;;;30.45;17.02;;;;;;;-2.72;94.35;102508.50;4933859;29;20088;-78
2023/02/09 07:39:16;;;;;;;28.70;16.20;;;;;;;-2.30;93.47;102499.19;4934005;29;20058;-76
2023/02/09 07:41:43;;;;;;;31.50;17.05;;;;;;;-2.34;91.93;102490.72;4934377;29;20589;-75
2023/02/09 07:44:10;;;;;;;30.40;17.13;;;;;;;-2.17;91.15;102492.97;4933586;29;20104;-78
2023/02/09 07:46:36;;;;;;;29.02;16.67;;;;;;;-1.96;89.51;102473.75;4934238;29;20051;-76
2023/02/09 07:49:05;;;;;;;32.90;17.50;;;;;;;-1.98;88.71;102466.97;4935129;29;20126;-76
2023/02/09 07:51:31;;;;;;;28.25;16.05;;;;;;;-1.84;88.15;102463.22;4935634;29;20086;-76
2023/02/09 07:53:59;;;;;;;30.25;17.63;;;;;;;-1.57;87.32;102451.53;4935177;29;20075;-76
2023/02/09 07:56:26;;;;;;;31.80;18.38;;;;;;;-1.54;86.71;102450.63;4935042;29;20055;-78
2023/02/09 07:58:54;;;;;;;31.80;17.23;;;;;;;-1.20;86.04;102460.94;4935649;29;20566;-79
2023/02/09 08:01:21;;;;;;;32.95;17.52;;;;;;;-1.19;85.33;102455.78;4931732;29;20051;-81
2023/02/09 08:03:49;;;;;;;32.30;18.90;;;;;;;-1.25;85.13;102450.78;4934462;29;20146;-78
2023/02/09 08:06:21;;;;;;;31.27;17.73;;;;;;;-1.07;84.83;102460.63;4933885;29;20139;-75
2023/02/09 08:08:50;;;;;;;32.13;17.50;;;;;;;-0.72;83.97;102464.88;4934752;29;20047;-75
2023/02/09 08:11:20;;;;;;;33.53;17.90;;;;;;;-0.25;83.09;102467.09;4934153;29;20138;-76
2023/02/09 08:13:47;;;;;;;27.95;17.35;;;;;;;0.36;81.68;102471.31;4934613;29;20134;-77
2023/02/09 08:16:17;;;;;;;28.55;17.40;;;;;;;0.78;79.79;102466.59;4933649;29;20056;-77
2023/02/09 08:18:50;;;;;;;33.53;17.58;;;;;;;0.33;78.85;102461.13;4933985;29;20051;-77
2023/02/09 08:21:19;;;;;;;34.08;17.13;;;;;;;-0.27;79.38;102463.69;4935321;29;20134;-78
2023/02/09 08:23:50;;;;;;;27.63;16.25;;;;;;;0.01;79.16;102454.31;4935273;29;20060;-81
2023/02/09 08:26:17;;;;;;;27.52;17.00;;;;;;;-0.14;79.69;102470.22;4933758;29;20139;-77
2023/02/09 08:28:44;;;;;;;31.20;18.17;;;;;;;-0.36;80.53;102475.06;4933720;29;22147;-78
2023/02/09 08:31:11;;;;;;;29.92;18.15;;;;;;;-0.01;80.34;102466.41;4933852;29;20139;-78
2023/02/09 08:33:37;;;;;;;32.60;20.33;;;;;;;-0.23;79.24;102473.03;4934110;29;20142;-77
2023/02/09 08:36:04;;;;;;;32.22;17.90;;;;;;;-0.06;79.66;102465.69;4933395;29;20075;-78
2023/02/09 08:38:34;;;;;;;29.13;17.30;;;;;;;0.06;79.50;102475.63;4933664;29;20155;-77
2023/02/09 08:41:03;;;;;;;29.23;17.48;;;;;;;0.65;78.88;102473.84;4933738;29;20151;-78
2023/02/09 08:43:30;;;;;;;28.42;17.52;;;;;;;1.22;77.13;102470.28;4931469;29;20071;-77
2023/02/09 08:46:02;;;;;;;28.80;17.55;;;;;;;0.60;76.47;102459.41;4933863;29;20070;-78
2023/02/09 08:48:30;;;;;;;23.63;13.27;;;;;;;0.48;76.90;102480.38;4931466;29;20517;-76
2023/02/09 08:50:57;;;;;;;28.27;17.02;;;;;;;0.77;76.02;102482.94;4931463;29;20127;-78
2023/02/09 08:53:23;;;;;;;30.70;17.80;;;;;;;0.76;75.75;102477.81;4936760;29;20138;-77
2023/02/09 08:55:51;;;;;;;30.60;17.10;;;;;;;0.19;76.26;102494.13;4932213;29;20047;-77
2023/02/09 08:58:18;;;;;;;29.80;17.65;;;;;;;0.11;77.18;102503.81;4933414;29;20058;-77
2023/02/09 09:00:45;;;;;;;33.10;17.27;;;;;;;-0.25;77.49;102503.09;4930775;29;20126;-77
2023/02/09 09:03:11;;;;;;;31.38;16.50;;;;;;;-0.18;77.89;102525.22;4925503;29;20052;-78
2023/02/09 09:05:38;;;;;;;30.60;17.55;;;;;;;-0.27;78.38;102518.56;4931977;29;20054;-77
2023/02/09 09:08:05;;;;;;;30.88;18.10;;;;;;;-0.14;78.30;102526.81;4933692;29;20048;-78
2023/02/09 09:10:32;;;;;;;31.60;17.92;;;;;;;0.00;78.13;102529.88;4933727;29;20519;-77
2023/02/09 09:13:00;;;;;;;33.58;18.85;;;;;;;0.20;78.09;102527.56;4929961;29;20418;-77
2023/02/09 09:15:27;;;;;;;32.47;18.67;;;;;;;0.29;77.74;102518.75;4931664;29;20411;-77
2023/02/09 09:17:53;;;;;;;32.35;18.58;;;;;;;0.55;77.55;102513.66;4933848;29;20439;-80
2023/02/09 09:20:21;;;;;;;33.05;18.25;;;;;;;0.65;76.65;102509.06;4933252;29;20051;-79
2023/02/09 09:22:48;;;;;;;30.95;18.10;;;;;;;0.64;76.36;102510.81;4931471;29;20067;-78
2023/02/09 09:25:14;;;;;;;31.30;17.63;;;;;;;0.69;75.95;102500.34;4930106;29;20070;-77
2023/02/09 09:27:41;;;;;;;30.98;18.02;;;;;;;0.47;75.88;102520.78;4928970;29;20082;-75
2023/02/09 09:30:10;;;;;;;32.15;18.20;;;;;;;0.16;76.88;102525.13;4932475;29;20483;-76
2023/02/09 09:32:37;;;;;;;32.80;18.17;;;;;;;0.08;76.88;102527.91;4934278;29;20056;-79
2023/02/09 09:35:04;;;;;;;29.67;18.88;;;;;;;0.24;77.06;102534.31;4933475;29;20135;-76
2023/02/09 09:37:32;;;;;;;34.17;18.88;;;;;;;0.21;77.45;102541.28;4928142;29;20126;-77
2023/02/09 09:39:59;;;;;;;30.85;17.48;;;;;;;0.26;76.83;102542.84;4930242;29;20486;-76
2023/02/09 09:42:33;;;;;;;32.47;19.00;;;;;;;0.27;77.09;102534.22;4930647;29;20530;-77
2023/02/09 09:45:01;;;;;;;31.98;17.92;;;;;;;0.29;76.65;102536.75;4933532;29;20328;-78
2023/02/09 09:47:36;;;;;;;34.83;18.33;;;;;;;0.30;76.73;102534.16;4932814;29;20059;-77
2023/02/09 09:50:04;;;;;;;34.22;18.08;;;;;;;0.22;77.04;102538.66;4931375;29;20055;-77
2023/02/09 09:52:35;;;;;;;32.08;19.48;;;;;;;0.37;76.71;102539.13;4933074;29;20140;-76
2023/02/09 09:55:06;;;;;;;29.30;17.83;;;;;;;0.60;76.38;102539.28;4933992;29;20461;-75
2023/02/09 09:57:44;;;;;;;29.60;18.02;;;;;;;0.88;75.76;102527.25;4933537;29;20135;-77
2023/02/09 10:00:18;;;;;;;34.05;17.38;;;;;;;0.96;75.26;102516.69;4932936;29;20052;-76
2023/02/09 10:02:46;;;;;;;31.35;17.50;;;;;;;1.17;74.61;102533.22;4936345;29;20427;-78
2023/02/09 10:05:18;;;;;;;28.17;17.63;;;;;;;1.14;74.44;102517.84;4940022;29;20047;-78
2023/02/09 10:07:52;;;;;;;29.58;16.95;;;;;;;0.89;74.19;102522.94;4939828;29;20479;-78
2023/02/09 10:10:37;;;;;;;32.03;17.25;;;;;;;1.13;74.82;102541.94;4935914;29;20052;-77
2023/02/09 10:13:09;;;;;;;30.95;18.08;;;;;;;1.18;73.68;102530.59;4938246;29;20047;-77
2023/02/09 10:15:36;;;;;;;27.67;16.30;;;;;;;1.26;73.73;102522.59;4939150;29;20052;-77
2023/02/09 10:18:12;;;;;;;30.35;17.48;;;;;;;1.13;73.49;102521.31;4939900;29;20127;-79
2023/02/09 10:20:43;;;;;;;29.17;16.92;;;;;;;1.36;73.52;102529.16;4939923;29;20044;-78
2023/02/09 10:23:19;;;;;;;33.95;17.40;;;;;;;1.58;73.45;102529.25;4939781;29;20463;-77
2023/02/09 10:25:54;;;;;;;36.40;18.13;;;;;;;1.43;72.63;102520.28;4939136;29;20062;-77
2023/02/09 10:28:22;;;;;;;34.60;18.80;;;;;;;1.27;72.62;102529.44;4934962;29;20115;-77
2023/02/09 10:30:51;;;;;;;31.63;17.67;;;;;;;1.48;72.27;102531.31;4939059;29;20478;-78
2023/02/09 10:33:19;;;;;;;32.90;17.50;;;;;;;1.60;71.88;102515.41;4939357;29;20484;-77
2023/02/09 10:35:50;;;;;;;30.42;17.35;;;;;;;1.52;72.17;102520.00;4938513;29;20526;-78
2023/02/09 10:38:19;;;;;;;30.30;17.58;;;;;;;1.89;71.66;102526.47;4939528;29;20512;-77
2023/02/09 10:40:47;;;;;;;31.20;17.45;;;;;;;1.97;70.57;102512.38;4939559;29;20058;-78
2023/02/09 10:43:21;;;;;;;28.10;17.13;;;;;;;2.24;69.81;102492.47;4939408;29;20415;-77
2023/02/09 10:45:53;;;;;;;28.17;17.75;;;;;;;1.96;70.47;102500.38;4939580;29;20055;-78
2023/02/09 10:48:23;;;;;;;36.80;18.45;;;;;;;1.92;69.95;102467.81;4934484;29;20119;-79
2023/02/09 10:50:52;;;;;;;28.70;16.77;;;;;;;2.11;70.16;102469.72;4939592;29;20087;-75
2023/02/09 10:53:22;;;;;;;32.33;17.48;;;;;;;2.07;69.62;102481.91;4934384;29;20140;-76
2023/02/09 10:55:50;;;;;;;30.00;17.13;;;;;;;2.01;69.47;102474.38;4938943;29;20250;-78
2023/02/09 10:58:27;;;;;;;28.05;16.08;;;;;;;2.25;69.61;102485.56;4939581;29;20165;-77
2023/02/09 11:01:00;;;;;;;28.42;15.68;;;;;;;2.37;68.72;102479.91;4939053;29;20142;-79
2023/02/09 11:03:29;;;;;;;23.40;14.55;;;;;;;2.64;68.74;102468.53;4935533;29;20055;-79
2023/02/09 11:06:01;;;;;;;30.88;15.95;;;;;;;2.72;68.19;102478.56;4939066;29;20058;-79
2023/02/09 11:08:41;;;;;;;25.38;15.27;;;;;;;2.71;67.58;102473.47;4939129;29;20139;-79
2023/02/09 11:11:13;;;;;;;26.52;16.25;;;;;;;2.55;66.76;102462.88;4937894;29;20071;-80
2023/02/09 11:13:41;;;;;;;26.02;15.15;;;;;;;2.58;66.67;102452.41;4938532;29;20131;-79
2023/02/09 11:16:29;;;;;;;29.85;15.25;;;;;;;2.62;66.21;102447.06;4936136;29;20422;-77
2023/02/09 11:19:10;;;;;;;27.13;15.68;;;;;;;2.63;66.31;102453.91;4936277;29;20126;-80
2023/02/09 11:21:54;;;;;;;27.63;15.05;;;;;;;2.90;65.88;102441.63;4936309;29;20142;-79
2023/02/09 11:24:35;;;;;;;25.42;15.50;;;;;;;3.11;66.41;102452.00;4931232;29;20051;-76
2023/02/09 11:27:07;;;;;;;38.08;15.52;;;;;;;3.11;65.84;102449.41;4933918;29;20132;-79